createdAt,value
2019-05-01T00:02:36.534Z,11.10
2019-05-01T00:05:23.906Z,11.10
2019-05-01T00:07:54.220Z,10.80
2019-05-01T00:10:25.729Z,10.70
2019-05-01T00:12:55.936Z,10.70
2019-05-01T00:15:29.048Z,10.60
2019-05-01T00:17:59.359Z,10.50
2019-05-01T00:20:29.606Z,10.70
2019-05-01T00:22:59.862Z,10.80
2019-05-01T00:25:30.151Z,10.80
2019-05-01T00:28:00.353Z,11.00
2019-05-01T00:30:31.748Z,11.00
2019-05-01T00:33:01.977Z,11.00
2019-05-01T00:35:32.351Z,11.10
2019-05-01T00:38:02.633Z,11.10
2019-05-01T00:40:32.933Z,11.10
2019-05-01T00:43:03.124Z,11.10
2019-05-01T00:45:33.337Z,11.00
2019-05-01T00:48:03.655Z,11.00
2019-05-01T00:50:33.878Z,10.70
2019-05-01T00:53:04.151Z,10.80
2019-05-01T00:55:52.148Z,10.90
2019-05-01T00:58:31.073Z,10.70
2019-05-01T01:01:28.102Z,10.60
2019-05-01T01:03:58.485Z,10.80
2019-05-01T01:06:28.781Z,10.80
2019-05-01T01:08:58.984Z,10.90
2019-05-01T01:11:29.477Z,11.00
2019-05-01T01:13:59.698Z,10.90
2019-05-01T01:16:29.925Z,11.00
2019-05-01T01:19:00.250Z,11.00
2019-05-01T01:21:30.602Z,10.70
2019-05-01T01:24:01.043Z,10.70
2019-05-01T01:26:31.345Z,10.60
2019-05-01T01:29:01.635Z,10.50
2019-05-01T01:31:31.883Z,10.60
2019-05-01T01:34:02.191Z,10.60
2019-05-01T01:36:32.404Z,10.50
2019-05-01T01:39:02.977Z,10.50
2019-05-01T01:41:33.377Z,10.60
2019-05-01T01:44:22.799Z,10.60
2019-05-01T01:46:53.918Z,10.60
2019-05-01T01:49:24.208Z,10.60
2019-05-01T01:51:54.795Z,10.60
2019-05-01T01:54:25.265Z,10.60
2019-05-01T01:56:56.097Z,10.60
2019-05-01T01:59:26.913Z,10.40
2019-05-01T02:02:14.890Z,10.30
2019-05-01T02:05:02.824Z,10.40
2019-05-01T02:07:33.254Z,10.40
2019-05-01T02:10:04.231Z,10.50
2019-05-01T02:12:35.111Z,10.30
2019-05-01T02:15:05.681Z,10.10
2019-05-01T02:17:35.958Z,10.20
2019-05-01T02:20:08.426Z,10.00
2019-05-01T02:22:38.673Z,10.10
2019-05-01T02:25:10.749Z,10.20
2019-05-01T02:27:49.481Z,10.10
2019-05-01T02:30:21.308Z,10.20
2019-05-01T02:32:53.350Z,10.10
2019-05-01T02:35:25.379Z,10.20
2019-05-01T02:37:55.667Z,10.10
2019-05-01T02:40:44.132Z,10.20
2019-05-01T02:43:17.406Z,10.10
2019-05-01T02:45:52.525Z,10.20
2019-05-01T02:48:24.497Z,10.10
2019-05-01T02:50:58.365Z,10.20
2019-05-01T02:53:29.977Z,10.10
2019-05-01T02:56:27.693Z,10.10
2019-05-01T02:58:58.264Z,9.80
2019-05-01T03:01:45.586Z,9.70
2019-05-01T03:04:01.248Z,9.80
2019-05-01T03:06:32.660Z,9.80
2019-05-01T03:09:07.150Z,9.80
2019-05-01T03:11:40.360Z,9.90
2019-05-01T03:14:16.219Z,9.90
2019-05-01T03:16:48.468Z,9.70
2019-05-01T03:19:39.993Z,9.80
2019-05-01T03:22:24.233Z,9.90
2019-05-01T03:24:54.794Z,9.80
2019-05-01T03:27:25.137Z,9.80
2019-05-01T03:29:55.472Z,9.80
2019-05-01T03:32:25.904Z,9.80
2019-05-01T03:34:56.549Z,9.80
2019-05-01T03:37:26.928Z,9.70
2019-05-01T03:39:57.219Z,9.70
2019-05-01T03:42:27.509Z,9.70
2019-05-01T03:44:57.775Z,9.70
2019-05-01T03:47:28.087Z,9.70
2019-05-01T03:49:58.582Z,9.70
2019-05-01T03:52:28.785Z,9.60
2019-05-01T03:54:59.035Z,9.60
2019-05-01T03:57:29.394Z,9.60
2019-05-01T03:59:59.653Z,9.70
2019-05-01T04:02:37.347Z,9.70
2019-05-01T04:05:07.813Z,9.60
2019-05-01T04:07:38.507Z,9.60
2019-05-01T04:10:08.764Z,9.50
2019-05-01T04:12:39.034Z,9.50
2019-05-01T04:15:09.514Z,9.50
2019-05-01T04:17:47.853Z,9.60
2019-05-01T04:20:18.313Z,9.60
2019-05-01T04:22:48.806Z,9.50
2019-05-01T04:25:19.605Z,9.30
2019-05-01T04:27:51.465Z,9.50
2019-05-01T04:30:44.102Z,9.40
2019-05-01T04:33:15.989Z,9.60
2019-05-01T04:36:00.500Z,9.60
2019-05-01T04:38:30.808Z,9.60
2019-05-01T04:41:01.146Z,9.50
2019-05-01T04:43:31.343Z,9.50
2019-05-01T04:46:02.311Z,9.60
2019-05-01T04:48:32.844Z,9.60
2019-05-01T04:51:03.308Z,9.60
2019-05-01T04:53:34.510Z,9.50
2019-05-01T04:56:04.901Z,9.50
2019-05-01T04:58:35.601Z,9.50
2019-05-01T05:01:05.968Z,9.50
2019-05-01T05:03:36.170Z,9.50
2019-05-01T05:06:06.457Z,9.50
2019-05-01T05:08:36.724Z,9.40
2019-05-01T05:11:11.732Z,9.60
2019-05-01T05:14:01.194Z,9.70
2019-05-01T05:16:56.739Z,9.60
2019-05-01T05:19:27.028Z,9.70
2019-05-01T05:21:57.397Z,9.70
2019-05-01T05:24:27.683Z,9.60
2019-05-01T05:26:59.277Z,9.60
2019-05-01T05:29:31.572Z,9.60
2019-05-01T05:32:03.798Z,9.70
2019-05-01T05:34:34.375Z,9.70
2019-05-01T05:37:14.979Z,9.80
2019-05-01T05:39:46.736Z,9.80
2019-05-01T05:42:17.057Z,9.90
2019-05-01T05:44:48.656Z,9.90
2019-05-01T05:47:19.125Z,9.80
2019-05-01T05:49:49.431Z,9.70
2019-05-01T05:52:28.565Z,9.80
2019-05-01T05:55:08.364Z,9.90
2019-05-01T05:57:58.100Z,10.00
2019-05-01T06:00:47.260Z,10.00
2019-05-01T06:03:38.130Z,9.90
2019-05-01T06:06:21.245Z,10.00
2019-05-01T06:08:53.254Z,10.00
2019-05-01T06:11:56.521Z,10.20
2019-05-01T06:14:47.074Z,10.30
2019-05-01T06:17:29.865Z,10.10
2019-05-01T06:20:20.762Z,10.10
2019-05-01T06:23:07.875Z,10.40
2019-05-01T06:25:39.740Z,10.40
2019-05-01T06:28:10.025Z,10.50
2019-05-01T06:30:42.140Z,10.80
2019-05-01T06:33:12.422Z,11.30
2019-05-01T06:35:42.758Z,11.80
2019-05-01T06:38:16.098Z,12.30
2019-05-01T06:40:53.082Z,12.70
2019-05-01T06:43:39.520Z,13.30
2019-05-01T06:46:37.606Z,13.60
2019-05-01T06:49:36.290Z,14.10
2019-05-01T06:52:07.468Z,14.10
2019-05-01T06:54:38.068Z,14.10
2019-05-01T06:57:08.469Z,14.40
2019-05-01T06:59:40.003Z,14.50
2019-05-01T07:02:15.881Z,14.70
2019-05-01T07:04:47.668Z,15.20
2019-05-01T07:07:25.082Z,15.10
2019-05-01T07:09:54.751Z,15.10
2019-05-01T07:12:28.258Z,15.60
2019-05-01T07:14:59.595Z,15.60
2019-05-01T07:17:30.140Z,16.00
2019-05-01T07:20:25.950Z,16.20
2019-05-01T07:22:56.814Z,16.50
2019-05-01T07:25:27.023Z,16.30
2019-05-01T07:27:58.605Z,16.50
2019-05-01T07:30:54.799Z,16.50
2019-05-01T07:33:22.580Z,16.80
2019-05-01T07:35:54.038Z,17.00
2019-05-01T07:38:24.388Z,17.30
2019-05-01T07:40:58.748Z,17.60
2019-05-01T07:43:44.615Z,17.60
2019-05-01T07:46:32.996Z,17.50
2019-05-01T07:49:03.895Z,17.60
2019-05-01T07:51:37.825Z,17.40
2019-05-01T07:54:08.859Z,17.70
2019-05-01T07:56:38.452Z,18.20
2019-05-01T07:59:08.845Z,18.20
2019-05-01T08:02:04.463Z,18.60
2019-05-01T08:04:36.411Z,18.80
2019-05-01T08:07:06.985Z,19.30
2019-05-01T08:09:37.334Z,19.70
2019-05-01T08:12:07.612Z,19.70
2019-05-01T08:14:37.912Z,19.30
2019-05-01T08:17:08.399Z,19.30
2019-05-01T08:19:56.276Z,19.10
2019-05-01T08:22:32.173Z,18.60
2019-05-01T08:25:00.914Z,18.30
2019-05-01T08:27:37.208Z,18.20
2019-05-01T08:30:26.634Z,18.60
2019-05-01T08:33:16.068Z,18.70
2019-05-01T08:35:46.506Z,18.40
2019-05-01T08:38:16.701Z,18.00
2019-05-01T08:40:50.719Z,18.10
2019-05-01T08:43:19.488Z,17.80
2019-05-01T08:46:01.856Z,17.80
2019-05-01T08:48:39.400Z,17.80
2019-05-01T08:51:09.692Z,17.70
2019-05-01T08:53:39.972Z,17.60
2019-05-01T08:56:10.263Z,17.10
2019-05-01T08:58:40.576Z,17.00
2019-05-01T09:01:15.021Z,17.00
2019-05-01T09:03:43.030Z,17.00
2019-05-01T09:06:13.320Z,17.10
2019-05-01T09:08:43.562Z,17.00
2019-05-01T09:11:13.848Z,16.90
2019-05-01T09:13:44.154Z,16.80
2019-05-01T09:16:14.529Z,17.10
2019-05-01T09:18:44.795Z,17.20
2019-05-01T09:21:15.137Z,17.00
2019-05-01T09:23:46.318Z,17.30
2019-05-01T09:26:45.323Z,17.40
2019-05-01T09:29:17.886Z,17.20
2019-05-01T09:31:48.756Z,17.40
2019-05-01T09:34:20.723Z,17.40
2019-05-01T09:36:51.012Z,17.30
2019-05-01T09:39:23.259Z,17.40
2019-05-01T09:41:53.546Z,17.60
2019-05-01T09:44:23.861Z,17.60
2019-05-01T09:46:54.111Z,17.70
2019-05-01T09:49:24.415Z,17.70
2019-05-01T09:52:05.772Z,17.60
2019-05-01T09:54:42.938Z,17.70
2019-05-01T09:57:11.002Z,18.00
2019-05-01T09:59:41.293Z,18.00
2019-05-01T10:02:12.355Z,17.80
2019-05-01T10:04:42.633Z,18.00
2019-05-01T10:07:12.954Z,17.90
2019-05-01T10:09:47.140Z,18.00
2019-05-01T10:12:15.243Z,17.90
2019-05-01T10:14:45.523Z,17.70
2019-05-01T10:17:15.790Z,17.60
2019-05-01T10:19:46.062Z,17.70
2019-05-01T10:22:16.311Z,18.00
2019-05-01T10:24:46.649Z,18.20
2019-05-01T10:27:20.013Z,18.40
2019-05-01T10:30:11.683Z,18.50
2019-05-01T10:33:06.681Z,18.50
2019-05-01T10:35:54.574Z,18.60
2019-05-01T10:38:24.862Z,18.70
2019-05-01T10:40:55.166Z,18.60
2019-05-01T10:43:25.429Z,18.60
2019-05-01T10:45:55.798Z,18.60
2019-05-01T10:48:26.083Z,18.70
2019-05-01T10:50:56.341Z,18.70
2019-05-01T10:53:26.668Z,18.60
2019-05-01T10:55:57.021Z,18.60
2019-05-01T10:58:27.247Z,18.60
2019-05-01T11:01:04.340Z,18.50
2019-05-01T11:03:34.622Z,18.30
2019-05-01T11:06:04.937Z,18.40
2019-05-01T11:08:35.219Z,18.40
2019-05-01T11:11:05.432Z,18.20
2019-05-01T11:13:35.709Z,18.10
2019-05-01T11:16:06.020Z,17.90
2019-05-01T11:18:36.256Z,17.90
2019-05-01T11:21:06.659Z,18.10
2019-05-01T11:23:36.938Z,18.20
2019-05-01T11:26:07.442Z,18.20
2019-05-01T11:28:37.625Z,18.50
2019-05-01T11:31:09.469Z,18.60
2019-05-01T11:34:13.630Z,18.70
2019-05-01T11:37:17.595Z,18.70
2019-05-01T11:39:55.703Z,18.60
2019-05-01T11:42:26.001Z,18.60
2019-05-01T11:44:56.301Z,18.50
2019-05-01T11:47:26.794Z,18.60
2019-05-01T11:49:57.111Z,18.60
2019-05-01T11:52:27.317Z,18.70
2019-05-01T11:54:57.662Z,18.70
2019-05-01T11:57:27.962Z,18.70
2019-05-01T11:59:58.177Z,18.70
2019-05-01T12:02:28.503Z,18.70
2019-05-01T12:04:58.803Z,18.70
2019-05-01T12:07:31.830Z,18.80
2019-05-01T12:10:02.066Z,18.90
2019-05-01T12:12:33.929Z,19.10
2019-05-01T12:15:04.569Z,19.30
2019-05-01T12:17:53.871Z,19.30
2019-05-01T12:20:24.236Z,19.20
2019-05-01T12:22:54.553Z,19.40
2019-05-01T12:25:24.770Z,19.50
2019-05-01T12:27:54.982Z,19.60
2019-05-01T12:30:25.297Z,19.50
2019-05-01T12:32:55.609Z,19.50
2019-05-01T12:35:25.905Z,19.60
2019-05-01T12:37:58.744Z,19.60
2019-05-01T12:40:29.041Z,19.60
2019-05-01T12:42:59.323Z,19.70
2019-05-01T12:45:29.669Z,19.80
2019-05-01T12:48:01.250Z,19.70
2019-05-01T12:50:31.569Z,19.60
2019-05-01T12:53:22.347Z,19.60
2019-05-01T12:56:11.634Z,19.40
2019-05-01T12:58:41.909Z,19.40
2019-05-01T13:01:12.183Z,19.80
2019-05-01T13:03:42.376Z,19.90
2019-05-01T13:06:14.422Z,20.10
2019-05-01T13:08:44.491Z,20.20
2019-05-01T13:11:14.809Z,20.20
2019-05-01T13:13:45.082Z,20.20
2019-05-01T13:16:15.391Z,20.10
2019-05-01T13:18:45.634Z,20.00
2019-05-01T13:21:15.945Z,20.00
2019-05-01T13:23:46.223Z,20.10
2019-05-01T13:26:28.917Z,20.10
2019-05-01T13:29:06.820Z,20.00
2019-05-01T13:32:05.187Z,19.90
2019-05-01T13:34:35.478Z,19.80
2019-05-01T13:37:05.799Z,19.70
2019-05-01T13:39:36.097Z,19.70
2019-05-01T13:42:08.959Z,19.60
2019-05-01T13:44:39.490Z,19.70
2019-05-01T13:47:09.803Z,19.70
2019-05-01T13:49:40.044Z,19.80
2019-05-01T13:52:10.387Z,19.90
2019-05-01T13:54:40.675Z,19.80
2019-05-01T13:57:11.115Z,19.80
2019-05-01T13:59:41.433Z,19.90
2019-05-01T14:02:11.715Z,20.00
2019-05-01T14:04:42.016Z,20.10
2019-05-01T14:07:16.682Z,19.90
2019-05-01T14:09:44.367Z,19.90
2019-05-01T14:12:14.754Z,19.90
2019-05-01T14:14:45.046Z,19.80
2019-05-01T14:17:15.387Z,19.80
2019-05-01T14:19:50.691Z,19.80
2019-05-01T14:22:38.677Z,19.90
2019-05-01T14:25:09.871Z,20.00
2019-05-01T14:27:40.178Z,20.00
2019-05-01T14:30:10.910Z,19.90
2019-05-01T14:32:41.250Z,19.80
2019-05-01T14:35:11.938Z,19.90
2019-05-01T14:37:42.308Z,19.80
2019-05-01T14:40:12.747Z,19.90
2019-05-01T14:42:43.038Z,19.90
2019-05-01T14:45:13.370Z,19.90
2019-05-01T14:47:43.704Z,20.00
2019-05-01T14:50:14.403Z,20.00
2019-05-01T14:52:44.737Z,20.00
2019-05-01T14:55:15.070Z,19.90
2019-05-01T14:57:45.338Z,20.00
2019-05-01T15:00:16.468Z,20.00
2019-05-01T15:02:46.766Z,20.10
2019-05-01T15:05:17.025Z,20.00
2019-05-01T15:07:47.378Z,20.10
2019-05-01T15:10:17.628Z,20.00
2019-05-01T15:12:49.660Z,20.10
2019-05-01T15:15:41.971Z,20.10
2019-05-01T15:18:21.618Z,20.10
2019-05-01T15:20:51.896Z,20.20
2019-05-01T15:23:22.257Z,20.20
2019-05-01T15:25:52.562Z,20.10
2019-05-01T15:28:22.783Z,20.10
2019-05-01T15:30:53.346Z,20.10
2019-05-01T15:33:23.583Z,20.10
2019-05-01T15:35:53.866Z,20.00
2019-05-01T15:38:24.217Z,20.10
2019-05-01T15:41:06.775Z,20.00
2019-05-01T15:43:39.647Z,20.10
2019-05-01T15:46:09.957Z,20.00
2019-05-01T15:48:40.400Z,19.90
2019-05-01T15:51:10.699Z,19.80
2019-05-01T15:53:41.012Z,19.80
2019-05-01T15:56:11.282Z,19.80
2019-05-01T15:58:41.688Z,19.80
2019-05-01T16:01:11.984Z,19.80
2019-05-01T16:03:42.292Z,19.80
2019-05-01T16:06:12.514Z,19.80
2019-05-01T16:08:42.821Z,19.80
2019-05-01T16:11:35.058Z,19.80
2019-05-01T16:14:05.376Z,19.80
2019-05-01T16:16:35.759Z,19.80
2019-05-01T16:19:06.011Z,19.80
2019-05-01T16:21:36.276Z,19.90
2019-05-01T16:24:06.605Z,19.90
2019-05-01T16:26:36.881Z,19.70
2019-05-01T16:29:07.109Z,19.60
2019-05-01T16:31:37.370Z,19.60
2019-05-01T16:34:07.748Z,19.50
2019-05-01T16:36:37.964Z,19.40
2019-05-01T16:39:30.780Z,19.50
2019-05-01T16:42:01.064Z,19.50
2019-05-01T16:44:31.365Z,19.50
2019-05-01T16:47:01.645Z,19.50
2019-05-01T16:49:31.919Z,19.60
2019-05-01T16:52:02.287Z,19.60
2019-05-01T16:54:32.519Z,19.50
2019-05-01T16:57:02.837Z,19.60
2019-05-01T16:59:33.139Z,19.50
2019-05-01T17:02:22.363Z,19.40
2019-05-01T17:05:04.925Z,19.40
2019-05-01T17:07:48.136Z,19.40
2019-05-01T17:10:23.089Z,19.40
2019-05-01T17:12:54.995Z,19.30
2019-05-01T17:15:30.109Z,19.20
2019-05-01T17:18:00.384Z,19.20
2019-05-01T17:20:30.769Z,19.30
2019-05-01T17:23:01.093Z,19.20
2019-05-01T17:25:31.360Z,19.10
2019-05-01T17:28:02.961Z,19.10
2019-05-01T17:30:49.785Z,19.10
2019-05-01T17:33:23.368Z,19.20
2019-05-01T17:35:53.677Z,19.10
2019-05-01T17:38:24.004Z,19.10
2019-05-01T17:40:54.419Z,19.00
2019-05-01T17:43:24.795Z,19.00
2019-05-01T17:45:55.053Z,18.90
2019-05-01T17:48:28.949Z,18.80
2019-05-01T17:51:00.036Z,18.80
2019-05-01T17:53:29.309Z,18.80
2019-05-01T17:56:00.490Z,18.90
2019-05-01T17:58:30.894Z,18.70
2019-05-01T18:01:17.265Z,18.80
2019-05-01T18:03:56.768Z,18.80
2019-05-01T18:06:29.400Z,18.70
2019-05-01T18:09:03.239Z,18.60
2019-05-01T18:11:32.334Z,18.60
2019-05-01T18:14:05.427Z,18.60
2019-05-01T18:16:34.686Z,18.60
2019-05-01T18:19:09.623Z,18.50
2019-05-01T18:21:39.243Z,18.50
2019-05-01T18:24:31.302Z,18.50
2019-05-01T18:27:20.602Z,18.40
2019-05-01T18:29:56.356Z,18.40
2019-05-01T18:32:41.608Z,18.20
2019-05-01T18:35:14.325Z,18.10
2019-05-01T18:37:56.344Z,18.00
2019-05-01T18:40:33.923Z,17.80
2019-05-01T18:43:04.286Z,17.70
2019-05-01T18:45:57.774Z,17.60
2019-05-01T18:48:28.219Z,17.50
2019-05-01T18:50:58.539Z,17.40
2019-05-01T18:53:28.799Z,17.30
2019-05-01T18:56:01.284Z,17.20
2019-05-01T18:58:31.202Z,17.10
2019-05-01T19:01:04.180Z,17.10
2019-05-01T19:03:37.303Z,17.00
2019-05-01T19:06:05.862Z,16.90
2019-05-01T19:08:36.170Z,16.90
2019-05-01T19:11:12.926Z,16.90
2019-05-01T19:13:39.597Z,16.80
2019-05-01T19:16:10.002Z,16.90
2019-05-01T19:18:40.422Z,16.80
2019-05-01T19:21:11.184Z,16.80
2019-05-01T19:23:41.512Z,16.80
2019-05-01T19:26:13.595Z,16.80
2019-05-01T19:28:43.981Z,16.70
2019-05-01T19:31:14.388Z,16.70
2019-05-01T19:33:44.698Z,16.70
2019-05-01T19:36:14.969Z,16.70
2019-05-01T19:38:45.202Z,16.60
2019-05-01T19:41:15.617Z,16.50
2019-05-01T19:43:46.008Z,16.60
2019-05-01T19:46:16.414Z,16.40
2019-05-01T19:48:50.731Z,16.40
2019-05-01T19:51:19.199Z,16.40
2019-05-01T19:53:51.745Z,16.40
2019-05-01T19:56:23.034Z,16.30
2019-05-01T19:58:53.453Z,16.30
2019-05-01T20:01:23.861Z,16.30
2019-05-01T20:03:54.294Z,16.20
2019-05-01T20:06:24.691Z,16.10
2019-05-01T20:08:55.080Z,16.30
2019-05-01T20:11:25.429Z,16.20
2019-05-01T20:13:55.765Z,16.10
2019-05-01T20:16:26.065Z,16.10
2019-05-01T20:18:56.438Z,16.10
2019-05-01T20:21:26.725Z,16.10
2019-05-01T20:23:57.050Z,16.10
2019-05-01T20:26:32.060Z,16.00
2019-05-01T20:29:00.458Z,16.00
2019-05-01T20:31:32.883Z,16.20
2019-05-01T20:34:03.052Z,16.20
2019-05-01T20:36:33.365Z,16.20
2019-05-01T20:39:06.260Z,16.20
2019-05-01T20:41:36.650Z,16.20
2019-05-01T20:44:06.980Z,16.20
2019-05-01T20:46:37.368Z,16.10
2019-05-01T20:49:07.685Z,16.10
2019-05-01T20:51:37.978Z,16.10
2019-05-01T20:54:08.348Z,16.10
2019-05-01T20:56:44.359Z,16.00
2019-05-01T20:59:14.708Z,16.00
2019-05-01T21:01:45.021Z,16.10
2019-05-01T21:04:37.294Z,16.00
2019-05-01T21:07:29.304Z,16.00
2019-05-01T21:09:59.259Z,16.10
2019-05-01T21:12:29.724Z,16.00
2019-05-01T21:15:00.038Z,15.90
2019-05-01T21:17:30.414Z,15.80
2019-05-01T21:20:00.709Z,15.80
2019-05-01T21:22:31.081Z,15.60
2019-05-01T21:25:01.364Z,15.50
2019-05-01T21:27:33.442Z,15.60
2019-05-01T21:30:04.038Z,15.60
2019-05-01T21:32:34.323Z,15.50
2019-05-01T21:35:05.004Z,15.40
2019-05-01T21:37:35.335Z,15.30
2019-05-01T21:40:06.786Z,15.30
2019-05-01T21:42:37.069Z,15.30
2019-05-01T21:45:07.379Z,15.30
2019-05-01T21:47:37.672Z,15.30
2019-05-01T21:50:08.029Z,15.20
2019-05-01T21:52:38.249Z,15.10
2019-05-01T21:55:08.578Z,15.10
2019-05-01T21:57:40.792Z,15.10
2019-05-01T22:00:11.438Z,15.10
2019-05-01T22:02:46.300Z,15.00
2019-05-01T22:05:13.902Z,14.90
2019-05-01T22:07:44.220Z,14.90
2019-05-01T22:10:14.647Z,15.00
2019-05-01T22:12:49.163Z,14.90
2019-05-01T22:15:27.880Z,14.90
2019-05-01T22:18:03.366Z,14.80
2019-05-01T22:20:40.924Z,14.90
2019-05-01T22:23:17.027Z,15.00
2019-05-01T22:25:48.364Z,15.00
2019-05-01T22:28:23.654Z,15.00
2019-05-01T22:31:21.798Z,15.00
2019-05-01T22:33:53.573Z,15.00
2019-05-01T22:36:23.873Z,14.90
2019-05-01T22:38:54.168Z,14.90
2019-05-01T22:41:24.485Z,14.80
2019-05-01T22:43:54.764Z,14.70
2019-05-01T22:46:28.733Z,14.70
2019-05-01T22:48:59.051Z,14.70
2019-05-01T22:51:29.366Z,14.50
2019-05-01T22:53:59.713Z,14.50
2019-05-01T22:56:30.052Z,14.50
2019-05-01T22:59:00.361Z,14.40
2019-05-01T23:01:30.637Z,14.10
2019-05-01T23:04:03.498Z,13.90
2019-05-01T23:06:37.140Z,13.90
2019-05-01T23:09:07.915Z,13.90
2019-05-01T23:11:41.448Z,14.00
2019-05-01T23:14:11.848Z,13.80
2019-05-01T23:16:58.756Z,13.70
2019-05-01T23:19:30.493Z,13.80
2019-05-01T23:22:00.789Z,13.90
2019-05-01T23:24:31.043Z,13.90
2019-05-01T23:27:01.287Z,14.00
2019-05-01T23:29:31.560Z,14.00
2019-05-01T23:32:01.823Z,14.00
2019-05-01T23:34:32.018Z,13.90
2019-05-01T23:37:02.298Z,13.90
2019-05-01T23:39:39.599Z,13.90
2019-05-01T23:42:04.545Z,13.90
2019-05-01T23:44:38.128Z,13.80
2019-05-01T23:47:06.820Z,13.50
2019-05-01T23:49:37.109Z,13.50
2019-05-01T23:52:07.378Z,13.60
2019-05-01T23:54:37.664Z,13.40
2019-05-01T23:57:07.839Z,13.50
2019-05-01T23:59:38.131Z,13.30
